createdAt,value
2022-08-07T00:01:43.115Z,86.76
2022-08-07T00:03:51.655Z,86.41
2022-08-07T00:06:18.524Z,86.68
2022-08-07T00:08:56.062Z,87.09
2022-08-07T00:11:30.036Z,87.41
2022-08-07T00:14:00.097Z,87.31
2022-08-07T00:16:28.970Z,88.17
2022-08-07T00:18:55.774Z,88.07
2022-08-07T00:21:57.027Z,87.82
2022-08-07T00:24:10.336Z,87.88
2022-08-07T00:26:49.127Z,88.26
2022-08-07T00:29:31.361Z,88.26
2022-08-07T00:31:59.763Z,88.30
2022-08-07T00:34:27.221Z,88.29
2022-08-07T00:36:56.561Z,88.45
2022-08-07T00:39:23.404Z,88.29
2022-08-07T00:42:01.685Z,88.71
2022-08-07T00:44:31.511Z,89.24
2022-08-07T00:47:00.522Z,89.28
2022-08-07T00:50:20.696Z,89.66
2022-08-07T00:52:17.488Z,90.21
2022-08-07T00:54:44.682Z,90.58
2022-08-07T00:57:13.162Z,90.68
2022-08-07T00:59:39.967Z,90.62
2022-08-07T01:02:13.938Z,90.34
2022-08-07T01:04:47.126Z,89.69
2022-08-07T01:07:15.200Z,89.12
2022-08-07T01:10:06.350Z,89.65
2022-08-07T01:12:30.944Z,90.28
2022-08-07T01:15:01.250Z,91.47
2022-08-07T01:17:30.529Z,92.04
2022-08-07T01:20:04.791Z,91.60
2022-08-07T01:22:31.852Z,92.09
2022-08-07T01:24:59.378Z,91.74
2022-08-07T01:27:32.044Z,91.83
2022-08-07T01:29:59.811Z,92.30
2022-08-07T01:32:27.823Z,93.20
2022-08-07T01:34:56.178Z,93.40
2022-08-07T01:37:24.519Z,92.93
2022-08-07T01:39:52.259Z,92.77
2022-08-07T01:42:38.473Z,92.68
2022-08-07T01:45:15.860Z,92.50
2022-08-07T01:48:19.101Z,92.20
2022-08-07T01:50:32.689Z,91.67
2022-08-07T01:53:02.151Z,91.01
2022-08-07T01:55:44.662Z,90.00
2022-08-07T01:58:29.525Z,90.19
2022-08-07T02:01:09.512Z,89.99
2022-08-07T02:03:58.197Z,89.96
2022-08-07T02:06:31.557Z,89.82
2022-08-07T02:09:03.656Z,90.11
2022-08-07T02:12:02.806Z,90.18
2022-08-07T02:14:36.086Z,90.56
2022-08-07T02:17:10.045Z,90.92
2022-08-07T02:20:07.241Z,91.04
2022-08-07T02:22:28.099Z,91.05
2022-08-07T02:24:56.514Z,91.55
2022-08-07T02:27:34.114Z,91.58
2022-08-07T02:30:07.013Z,91.67
2022-08-07T02:32:36.246Z,91.91
2022-08-07T02:35:09.210Z,91.99
2022-08-07T02:37:44.111Z,91.20
2022-08-07T02:40:30.684Z,91.13
2022-08-07T02:43:00.462Z,91.23
2022-08-07T02:46:00.743Z,91.88
2022-08-07T02:48:17.415Z,91.21
2022-08-07T02:50:48.392Z,90.88
2022-08-07T02:53:31.311Z,91.06
2022-08-07T02:56:11.335Z,91.28
2022-08-07T02:58:47.345Z,91.98
2022-08-07T03:01:18.571Z,91.70
2022-08-07T03:03:49.760Z,92.31
2022-08-07T03:06:26.247Z,91.41
2022-08-07T03:09:01.986Z,91.57
2022-08-07T03:11:29.634Z,92.88
2022-08-07T03:14:02.075Z,92.56
2022-08-07T03:16:30.496Z,91.86
2022-08-07T03:18:59.215Z,92.09
2022-08-07T03:21:27.794Z,92.83
2022-08-07T03:24:18.089Z,93.24
2022-08-07T03:26:57.756Z,94.00
2022-08-07T03:29:30.017Z,93.79
2022-08-07T03:31:57.955Z,93.46
2022-08-07T03:34:27.946Z,93.33
2022-08-07T03:36:57.381Z,93.71
2022-08-07T03:39:59.144Z,93.91
2022-08-07T03:42:16.228Z,94.40
2022-08-07T03:44:53.190Z,94.47
2022-08-07T03:47:22.793Z,94.44
2022-08-07T03:49:52.235Z,94.02
2022-08-07T03:52:26.374Z,94.65
2022-08-07T03:55:06.564Z,94.73
2022-08-07T03:58:33.134Z,95.06
2022-08-07T04:00:29.378Z,95.15
2022-08-07T04:02:59.590Z,95.04
2022-08-07T04:05:39.769Z,95.38
2022-08-07T04:08:11.029Z,94.95
2022-08-07T04:10:42.197Z,94.34
2022-08-07T04:13:15.276Z,94.24
2022-08-07T04:15:43.870Z,94.74
2022-08-07T04:18:58.580Z,94.82
2022-08-07T04:21:01.485Z,94.81
2022-08-07T04:23:43.612Z,94.13
2022-08-07T04:26:21.837Z,94.34
2022-08-07T04:28:48.894Z,94.65
2022-08-07T04:31:19.984Z,94.66
2022-08-07T04:34:03.086Z,94.38
2022-08-07T04:36:29.780Z,93.98
2022-08-07T04:38:56.652Z,94.31
2022-08-07T04:41:25.025Z,93.43
2022-08-07T04:44:12.716Z,93.31
2022-08-07T04:47:04.787Z,92.90
2022-08-07T04:50:22.284Z,93.44
2022-08-07T04:54:05.035Z,93.25
2022-08-07T04:58:12.004Z,93.33
2022-08-07T05:00:18.968Z,92.69
2022-08-07T05:03:16.855Z,93.07
2022-08-07T05:06:19.448Z,93.29
2022-08-07T05:09:08.147Z,93.71
2022-08-07T05:11:57.315Z,92.92
2022-08-07T05:14:55.290Z,93.09
2022-08-07T05:17:50.861Z,93.25
2022-08-07T05:20:17.879Z,92.98
2022-08-07T05:22:47.767Z,92.90
2022-08-07T05:25:26.126Z,93.19
2022-08-07T05:28:20.305Z,93.12
2022-08-07T05:30:52.104Z,92.94
2022-08-07T05:33:20.789Z,93.22
2022-08-07T05:35:50.891Z,91.86
2022-08-07T05:39:01.265Z,91.22
2022-08-07T05:41:14.318Z,91.31
2022-08-07T05:44:12.268Z,91.01
2022-08-07T05:46:38.373Z,90.77
2022-08-07T05:49:12.594Z,90.71
2022-08-07T05:51:46.660Z,91.78
2022-08-07T05:54:31.564Z,91.73
2022-08-07T05:57:03.872Z,90.80
2022-08-07T05:59:42.720Z,91.49
2022-08-07T06:02:28.469Z,90.61
2022-08-07T06:04:59.463Z,91.16
2022-08-07T06:08:13.570Z,90.84
2022-08-07T06:10:15.307Z,90.16
2022-08-07T06:12:42.558Z,90.41
2022-08-07T06:15:15.243Z,91.12
2022-08-07T06:17:50.664Z,90.76
2022-08-07T06:20:31.817Z,91.41
2022-08-07T06:23:04.106Z,90.27
2022-08-07T06:25:54.873Z,89.92
2022-08-07T06:28:27.930Z,89.38
2022-08-07T06:30:56.119Z,90.05
2022-08-07T06:33:22.923Z,90.49
2022-08-07T06:36:12.796Z,89.47
2022-08-07T06:38:36.649Z,89.02
2022-08-07T06:41:12.945Z,88.35
2022-08-07T06:43:46.593Z,87.93
2022-08-07T06:46:35.052Z,86.81
2022-08-07T06:49:03.956Z,86.63
2022-08-07T06:51:34.917Z,85.70
2022-08-07T06:55:27.436Z,85.63
2022-08-07T06:56:52.270Z,86.63
2022-08-07T07:00:11.707Z,86.24
2022-08-07T07:02:49.321Z,85.52
2022-08-07T07:05:07.752Z,85.00
2022-08-07T07:07:59.379Z,85.14
2022-08-07T07:10:57.047Z,85.26
2022-08-07T07:13:56.657Z,84.99
2022-08-07T07:16:22.065Z,84.77
2022-08-07T07:18:54.325Z,84.15
2022-08-07T07:21:26.970Z,83.46
2022-08-07T07:24:12.631Z,83.79
2022-08-07T07:26:51.663Z,83.06
2022-08-07T07:29:56.456Z,83.79
2022-08-07T07:32:13.825Z,82.22
2022-08-07T07:34:45.403Z,80.32
2022-08-07T07:37:43.973Z,78.49
2022-08-07T07:40:10.234Z,79.91
2022-08-07T07:42:43.554Z,78.90
2022-08-07T07:45:24.468Z,78.40
2022-08-07T07:48:11.121Z,75.76
2022-08-07T07:50:40.153Z,74.88
2022-08-07T07:53:20.071Z,75.83
2022-08-07T07:55:57.558Z,74.68
2022-08-07T07:58:29.473Z,75.54
2022-08-07T08:00:58.709Z,74.20
2022-08-07T08:04:06.292Z,74.14
2022-08-07T08:06:17.634Z,73.59
2022-08-07T08:08:45.046Z,73.42
2022-08-07T08:11:18.046Z,72.73
2022-08-07T08:14:02.365Z,71.62
2022-08-07T08:16:39.569Z,69.68
2022-08-07T08:20:18.885Z,68.67
2022-08-07T08:22:32.700Z,67.69
2022-08-07T08:25:33.024Z,67.31
2022-08-07T08:28:12.552Z,67.25
2022-08-07T08:30:50.987Z,67.20
2022-08-07T08:33:24.947Z,67.80
2022-08-07T08:35:57.560Z,66.95
2022-08-07T08:38:34.248Z,66.30
2022-08-07T08:41:17.734Z,65.21
2022-08-07T08:44:01.743Z,64.05
2022-08-07T08:46:44.916Z,65.43
2022-08-07T08:49:32.684Z,63.78
2022-08-07T08:52:13.815Z,64.18
2022-08-07T08:55:21.284Z,64.16
2022-08-07T08:58:24.840Z,64.25
2022-08-07T09:01:15.008Z,63.65
2022-08-07T09:03:56.685Z,63.80
2022-08-07T09:06:53.535Z,62.50
2022-08-07T09:09:57.012Z,62.63
2022-08-07T09:12:31.906Z,62.42
2022-08-07T09:16:23.066Z,62.26
2022-08-07T09:18:36.775Z,62.50
2022-08-07T09:22:10.279Z,61.88
2022-08-07T09:25:14.761Z,62.38
2022-08-07T09:30:01.317Z,61.78
2022-08-07T09:31:20.644Z,60.58
2022-08-07T09:34:11.118Z,61.78
2022-08-07T09:37:03.311Z,61.82
2022-08-07T09:39:55.124Z,61.26
2022-08-07T09:42:41.318Z,60.79
2022-08-07T09:47:25.742Z,60.64
2022-08-07T09:50:01.119Z,60.45
2022-08-07T09:52:33.503Z,61.71
2022-08-07T09:56:03.176Z,61.02
2022-08-07T09:59:01.457Z,59.93
2022-08-07T10:01:52.325Z,60.13
2022-08-07T10:04:53.034Z,61.73
2022-08-07T10:07:52.906Z,61.23
2022-08-07T10:11:07.691Z,60.23
2022-08-07T10:14:00.410Z,60.57
2022-08-07T10:16:56.390Z,60.65
2022-08-07T10:19:52.790Z,60.82
2022-08-07T10:22:43.178Z,60.06
2022-08-07T10:25:43.177Z,60.73
2022-08-07T10:28:49.677Z,60.46
2022-08-07T10:32:36.438Z,60.05
2022-08-07T10:38:48.217Z,60.43
2022-08-07T10:41:52.166Z,60.91
2022-08-07T10:57:06.689Z,59.58
2022-08-07T11:00:04.140Z,59.41
2022-08-07T11:02:55.408Z,60.69
2022-08-07T11:05:48.639Z,60.01
2022-08-07T11:08:39.021Z,60.31
2022-08-07T11:11:51.781Z,60.89
2022-08-07T11:15:00.288Z,58.89
2022-08-07T11:17:43.440Z,58.89
2022-08-07T11:20:24.623Z,59.91
2022-08-07T11:23:02.854Z,59.19
2022-08-07T11:25:48.198Z,57.20
2022-08-07T11:28:33.839Z,57.18
2022-08-07T11:31:11.623Z,57.41
2022-08-07T11:34:04.031Z,58.17
2022-08-07T11:36:42.180Z,58.00
2022-08-07T11:39:59.865Z,59.00
2022-08-07T11:42:59.876Z,56.81
2022-08-07T11:45:53.666Z,58.93
2022-08-07T11:48:36.204Z,57.90
2022-08-07T11:51:46.642Z,58.44
2022-08-07T11:54:40.970Z,58.33
2022-08-07T11:57:59.387Z,58.39
2022-08-07T12:01:05.305Z,58.62
2022-08-07T12:03:53.685Z,59.06
2022-08-07T12:07:20.385Z,59.53
2022-08-07T12:09:58.746Z,59.50
2022-08-07T12:12:38.189Z,60.72
2022-08-07T12:15:35.664Z,59.49
2022-08-07T12:18:16.093Z,59.79
2022-08-07T12:21:02.044Z,61.25
2022-08-07T12:24:04.797Z,61.26
2022-08-07T12:26:40.526Z,61.19
2022-08-07T12:29:37.686Z,60.90
2022-08-07T12:33:02.246Z,61.21
2022-08-07T12:35:48.727Z,59.18
2022-08-07T12:38:38.491Z,61.19
2022-08-07T12:41:11.509Z,61.57
2022-08-07T12:44:03.734Z,60.91
2022-08-07T12:47:07.416Z,61.29
2022-08-07T12:49:53.033Z,61.07
2022-08-07T12:52:36.782Z,61.44
2022-08-07T12:55:41.288Z,60.53
2022-08-07T12:58:20.170Z,62.32
2022-08-07T13:01:07.762Z,62.43
2022-08-07T13:04:04.675Z,63.49
2022-08-07T13:08:12.826Z,62.07
2022-08-07T13:10:52.325Z,63.18
2022-08-07T13:13:50.227Z,60.97
2022-08-07T13:17:02.566Z,63.48
2022-08-07T13:20:00.789Z,62.22
2022-08-07T13:22:38.367Z,63.73
2022-08-07T13:25:24.318Z,64.58
2022-08-07T13:28:12.393Z,62.97
2022-08-07T13:30:48.973Z,64.03
2022-08-07T13:34:34.509Z,64.34
2022-08-07T13:36:25.917Z,64.11
2022-08-07T13:39:28.593Z,63.94
2022-08-07T13:42:10.153Z,64.48
2022-08-07T13:44:38.908Z,63.73
2022-08-07T13:47:09.840Z,65.02
2022-08-07T13:50:33.009Z,65.01
2022-08-07T13:52:40.930Z,65.29
2022-08-07T13:55:19.608Z,63.64
2022-08-07T13:58:28.149Z,64.00
2022-08-07T14:01:09.030Z,63.71
2022-08-07T14:04:05.280Z,64.76
2022-08-07T14:06:37.157Z,65.31
2022-08-07T14:09:07.387Z,65.13
2022-08-07T14:11:53.157Z,65.23
2022-08-07T14:14:31.537Z,65.43
2022-08-07T14:17:32.010Z,66.58
2022-08-07T14:20:41.712Z,65.73
2022-08-07T14:22:48.919Z,65.37
2022-08-07T14:25:16.931Z,65.05
2022-08-07T14:28:10.642Z,65.86
2022-08-07T14:30:37.531Z,65.14
2022-08-07T14:33:08.466Z,65.86
2022-08-07T14:35:45.308Z,66.88
2022-08-07T14:38:31.292Z,66.72
2022-08-07T14:41:04.227Z,67.00
2022-08-07T14:43:59.067Z,66.94
2022-08-07T14:46:31.040Z,67.94
2022-08-07T14:49:17.651Z,68.87
2022-08-07T14:52:04.280Z,68.54
2022-08-07T14:54:42.137Z,69.13
2022-08-07T14:57:19.580Z,68.79
2022-08-07T15:00:04.473Z,69.04
2022-08-07T15:02:34.638Z,70.37
2022-08-07T15:05:03.421Z,70.45
2022-08-07T15:10:26.369Z,69.93
2022-08-07T15:12:58.409Z,69.29
2022-08-07T15:18:46.622Z,69.46
2022-08-07T15:21:58.820Z,69.61
2022-08-07T15:27:15.423Z,69.19
2022-08-07T15:32:39.184Z,70.52
2022-08-07T15:35:12.532Z,69.49
2022-08-07T15:38:06.195Z,68.83
2022-08-07T15:40:34.133Z,68.61
2022-08-07T15:43:10.576Z,68.80
2022-08-07T15:46:05.752Z,69.05
2022-08-07T15:49:11.613Z,68.04
2022-08-07T15:54:39.477Z,68.26
2022-08-07T15:57:27.770Z,68.55
2022-08-07T16:00:00.007Z,68.98
2022-08-07T16:02:46.893Z,69.45
2022-08-07T16:05:17.528Z,69.85
2022-08-07T16:08:30.425Z,69.87
2022-08-07T16:10:57.760Z,70.13
2022-08-07T16:13:58.855Z,70.21
2022-08-07T16:16:57.212Z,70.82
2022-08-07T16:19:58.841Z,71.83
2022-08-07T16:22:37.949Z,69.44
2022-08-07T16:25:53.946Z,70.78
2022-08-07T16:30:06.977Z,67.65
2022-08-07T16:32:33.063Z,65.39
2022-08-07T16:35:58.614Z,65.88
2022-08-07T16:39:00.556Z,65.28
2022-08-07T16:42:06.833Z,65.79
2022-08-07T16:45:15.121Z,65.95
2022-08-07T16:48:13.433Z,65.85
2022-08-07T17:14:33.238Z,66.43
2022-08-07T17:17:06.404Z,66.80
2022-08-07T17:20:01.832Z,67.06
2022-08-07T17:22:54.897Z,67.57
2022-08-07T17:25:51.896Z,68.00
2022-08-07T17:28:19.366Z,68.91
2022-08-07T17:31:44.059Z,69.17
2022-08-07T17:35:32.853Z,68.18
2022-08-07T17:38:33.482Z,68.30
2022-08-07T17:42:04.984Z,69.47
2022-08-07T17:44:42.814Z,69.24
2022-08-07T17:47:08.449Z,69.08
2022-08-07T17:49:45.388Z,68.95
2022-08-07T17:52:33.813Z,69.50
2022-08-07T17:55:54.134Z,70.82
2022-08-07T17:58:08.475Z,69.25
2022-08-07T18:00:48.542Z,69.15
2022-08-07T18:04:04.518Z,69.16
2022-08-07T18:06:38.928Z,69.02
2022-08-07T18:09:16.093Z,70.39
2022-08-07T18:12:19.722Z,72.32
2022-08-07T18:15:13.808Z,72.60
2022-08-07T18:18:45.045Z,72.75
2022-08-07T18:21:02.364Z,73.17
2022-08-07T18:23:59.609Z,71.95
2022-08-07T18:27:12.275Z,72.09
2022-08-07T18:30:31.518Z,73.21
2022-08-07T18:33:34.758Z,72.48
2022-08-07T18:36:33.089Z,71.56
2022-08-07T18:40:09.006Z,71.60
2022-08-07T18:42:29.637Z,71.92
2022-08-07T18:45:43.303Z,72.10
2022-08-07T18:50:05.463Z,72.41
2022-08-07T19:02:17.389Z,74.41
2022-08-07T19:10:31.780Z,74.95
2022-08-07T19:13:23.212Z,75.42
2022-08-07T19:17:05.085Z,75.23
2022-08-07T19:19:17.501Z,75.26
2022-08-07T19:21:56.275Z,75.74
2022-08-07T19:24:56.956Z,76.60
2022-08-07T19:28:56.595Z,76.36
2022-08-07T19:31:00.840Z,76.29
2022-08-07T19:33:08.237Z,76.38
2022-08-07T19:35:42.475Z,77.01
2022-08-07T19:38:17.837Z,77.10
2022-08-07T19:40:50.384Z,77.75
2022-08-07T19:43:50.096Z,79.53
2022-08-07T19:46:26.659Z,79.63
2022-08-07T19:49:15.171Z,81.16
2022-08-07T19:51:53.162Z,82.43
2022-08-07T19:54:30.030Z,83.10
2022-08-07T19:58:04.472Z,84.19
2022-08-07T20:00:08.951Z,85.13
2022-08-07T20:03:05.123Z,84.75
2022-08-07T20:06:03.551Z,84.18
2022-08-07T20:08:36.668Z,84.89
2022-08-07T20:11:23.072Z,85.48
2022-08-07T20:14:04.665Z,85.71
2022-08-07T20:16:36.918Z,86.23
2022-08-07T20:19:11.098Z,87.00
2022-08-07T20:21:47.133Z,87.49
2022-08-07T20:24:22.968Z,87.80
2022-08-07T20:26:54.352Z,88.31
2022-08-07T20:29:47.818Z,88.73
2022-08-07T20:32:22.881Z,88.68
2022-08-07T20:34:56.511Z,89.07
2022-08-07T20:37:59.299Z,89.09
2022-08-07T20:40:32.250Z,89.44
2022-08-07T20:43:14.478Z,89.46
2022-08-07T20:46:27.149Z,89.40
2022-08-07T20:48:58.036Z,88.46
2022-08-07T20:51:31.454Z,87.58
2022-08-07T20:54:11.967Z,86.50
2022-08-07T20:56:48.209Z,86.34
2022-08-07T21:00:05.318Z,86.43
2022-08-07T21:02:35.006Z,86.36
2022-08-07T21:05:16.586Z,87.41
2022-08-07T21:07:49.664Z,87.62
2022-08-07T21:10:29.560Z,87.62
2022-08-07T21:13:00.782Z,88.53
2022-08-07T21:15:48.013Z,88.89
2022-08-07T21:18:27.888Z,89.21
2022-08-07T21:21:00.536Z,89.31
2022-08-07T21:24:22.118Z,89.93
2022-08-07T21:27:01.639Z,89.59
2022-08-07T21:29:53.404Z,90.53
2022-08-07T21:32:43.006Z,90.73
2022-08-07T21:35:34.625Z,91.52
2022-08-07T21:38:27.715Z,91.78
2022-08-07T21:41:00.370Z,91.62
2022-08-07T21:43:55.919Z,91.24
2022-08-07T21:46:36.463Z,90.49
2022-08-07T21:49:40.700Z,90.40
2022-08-07T21:53:10.657Z,90.74
2022-08-07T21:56:36.208Z,90.83
2022-08-07T21:59:21.429Z,90.34
2022-08-07T22:02:07.796Z,90.59
2022-08-07T22:04:53.967Z,91.55
2022-08-07T22:07:31.908Z,91.12
2022-08-07T22:10:20.855Z,90.72
2022-08-07T22:12:55.467Z,90.77
2022-08-07T22:16:43.246Z,91.17
2022-08-07T22:19:30.118Z,90.61
2022-08-07T22:22:28.663Z,90.53
2022-08-07T22:25:11.096Z,90.48
2022-08-07T22:28:19.759Z,90.73
2022-08-07T22:30:53.008Z,90.42
2022-08-07T22:33:50.957Z,90.89
2022-08-07T22:36:58.912Z,92.37
2022-08-07T22:39:54.015Z,92.05
2022-08-07T22:42:29.348Z,91.85
2022-08-07T22:46:04.472Z,91.59
2022-08-07T22:48:54.994Z,91.59
2022-08-07T22:51:51.881Z,91.90
2022-08-07T22:55:17.305Z,92.30
2022-08-07T22:58:07.950Z,92.41
2022-08-07T23:00:46.118Z,92.69
2022-08-07T23:03:57.929Z,92.76
2022-08-07T23:06:51.546Z,92.54
2022-08-07T23:10:03.961Z,93.08
2022-08-07T23:13:04.858Z,92.29
2022-08-07T23:16:08.746Z,91.82
2022-08-07T23:19:38.724Z,92.47
2022-08-07T23:22:52.277Z,93.38
2022-08-07T23:25:41.579Z,93.69
2022-08-07T23:28:54.395Z,93.41
2022-08-07T23:34:21.411Z,92.45
2022-08-07T23:35:02.351Z,92.37
2022-08-07T23:38:36.936Z,91.75
2022-08-07T23:41:47.419Z,91.23
2022-08-07T23:44:57.957Z,90.50
2022-08-07T23:48:02.840Z,90.09
2022-08-07T23:50:38.076Z,89.36
2022-08-07T23:53:49.724Z,89.23
